sensor_id;sensor_type;location;lat;lon;timestamp;pressure;altitude;pressure_sealevel;temperature;humidity
55187;BME280;55457;52.002;5.464;2023-05-12T00:00:55;101493.63;;;21.89;55.17
55187;BME280;55457;52.002;5.464;2023-05-12T00:03:21;101489.84;;;21.90;55.16
55187;BME280;55457;52.002;5.464;2023-05-12T00:05:47;101497.16;;;21.89;54.98
55187;BME280;55457;52.002;5.464;2023-05-12T00:08:12;101494.47;;;21.89;54.86
55187;BME280;55457;52.002;5.464;2023-05-12T00:10:37;101493.63;;;21.89;54.90
55187;BME280;55457;52.002;5.464;2023-05-12T00:13:03;101490.91;;;21.89;54.97
55187;BME280;55457;52.002;5.464;2023-05-12T00:15:28;101488.22;;;21.89;54.88
55187;BME280;55457;52.002;5.464;2023-05-12T00:17:54;101482.78;;;21.89;54.77
55187;BME280;55457;52.002;5.464;2023-05-12T00:20:19;101488.47;;;21.87;55.10
55187;BME280;55457;52.002;5.464;2023-05-12T00:22:45;101488.22;;;21.89;54.99
55187;BME280;55457;52.002;5.464;2023-05-12T00:25:10;101494.47;;;21.89;54.76
55187;BME280;55457;52.002;5.464;2023-05-12T00:27:36;101488.22;;;21.89;54.82
55187;BME280;55457;52.002;5.464;2023-05-12T00:30:01;101481.97;;;21.88;55.16
55187;BME280;55457;52.002;5.464;2023-05-12T00:32:26;101475.72;;;21.88;55.01
55187;BME280;55457;52.002;5.464;2023-05-12T00:34:52;101477.59;;;21.87;55.28
55187;BME280;55457;52.002;5.464;2023-05-12T00:37:18;101473.00;;;21.88;55.04
55187;BME280;55457;52.002;5.464;2023-05-12T00:39:44;101480.31;;;21.87;55.17
55187;BME280;55457;52.002;5.464;2023-05-12T00:42:09;101475.72;;;21.88;55.20
55187;BME280;55457;52.002;5.464;2023-05-12T00:44:36;101469.47;;;21.87;54.87
55187;BME280;55457;52.002;5.464;2023-05-12T00:47:02;101474.88;;;21.87;54.94
55187;BME280;55457;52.002;5.464;2023-05-12T00:49:28;101475.72;;;21.88;55.01
55187;BME280;55457;52.002;5.464;2023-05-12T00:51:57;101475.72;;;21.88;54.92
55187;BME280;55457;52.002;5.464;2023-05-12T00:54:24;101470.28;;;21.88;54.96
55187;BME280;55457;52.002;5.464;2023-05-12T00:56:50;101465.91;;;21.87;54.69
55187;BME280;55457;52.002;5.464;2023-05-12T00:59:15;101474.03;;;21.87;54.91
55187;BME280;55457;52.002;5.464;2023-05-12T01:01:41;101475.72;;;21.88;54.96
55187;BME280;55457;52.002;5.464;2023-05-12T01:04:06;101467.78;;;21.86;54.69
55187;BME280;55457;52.002;5.464;2023-05-12T01:06:44;101464.03;;;21.87;54.97
55187;BME280;55457;52.002;5.464;2023-05-12T01:09:13;101464.03;;;21.87;55.00
55187;BME280;55457;52.002;5.464;2023-05-12T01:11:38;101462.34;;;21.86;54.92
55187;BME280;55457;52.002;5.464;2023-05-12T01:14:03;101450.69;;;21.86;54.95
55187;BME280;55457;52.002;5.464;2023-05-12T01:16:36;101458.59;;;21.87;54.90
55187;BME280;55457;52.002;5.464;2023-05-12T01:19:08;101449.63;;;21.87;54.88
55187;BME280;55457;52.002;5.464;2023-05-12T01:21:38;101454.00;;;21.88;54.98
55187;BME280;55457;52.002;5.464;2023-05-12T01:24:06;101445.25;;;21.86;54.72
55187;BME280;55457;52.002;5.464;2023-05-12T01:26:32;101439.81;;;21.86;55.23
55187;BME280;55457;52.002;5.464;2023-05-12T01:28:59;101440.66;;;21.86;54.85
55187;BME280;55457;52.002;5.464;2023-05-12T01:31:26;101433.34;;;21.87;54.94
55187;BME280;55457;52.002;5.464;2023-05-12T01:33:51;101438.19;;;21.85;54.71
55187;BME280;55457;52.002;5.464;2023-05-12T01:36:17;101439.00;;;21.85;54.81
55187;BME280;55457;52.002;5.464;2023-05-12T01:38:42;101434.41;;;21.86;55.08
55187;BME280;55457;52.002;5.464;2023-05-12T01:41:07;101434.41;;;21.86;54.95
55187;BME280;55457;52.002;5.464;2023-05-12T01:43:33;101434.19;;;21.87;55.12
55187;BME280;55457;52.002;5.464;2023-05-12T01:45:58;101430.03;;;21.85;54.87
55187;BME280;55457;52.002;5.464;2023-05-12T01:48:23;101437.13;;;21.86;55.11
55187;BME280;55457;52.002;5.464;2023-05-12T01:50:49;101427.34;;;21.85;55.27
55187;BME280;55457;52.002;5.464;2023-05-12T01:53:14;101430.03;;;21.85;55.08
55187;BME280;55457;52.002;5.464;2023-05-12T01:55:39;101432.75;;;21.85;55.05
55187;BME280;55457;52.002;5.464;2023-05-12T01:58:05;101439.81;;;21.86;55.15
55187;BME280;55457;52.002;5.464;2023-05-12T02:00:30;101435.47;;;21.85;55.06
55187;BME280;55457;52.002;5.464;2023-05-12T02:02:55;101439.81;;;21.86;55.07
55187;BME280;55457;52.002;5.464;2023-05-12T02:05:21;101431.94;;;21.84;55.08
55187;BME280;55457;52.002;5.464;2023-05-12T02:07:47;101443.63;;;21.85;54.80
55187;BME280;55457;52.002;5.464;2023-05-12T02:10:12;101435.47;;;21.85;54.94
55187;BME280;55457;52.002;5.464;2023-05-12T02:12:37;101439.00;;;21.85;54.80
55187;BME280;55457;52.002;5.464;2023-05-12T02:15:03;101436.53;;;21.84;54.73
55187;BME280;55457;52.002;5.464;2023-05-12T02:17:29;101431.13;;;21.84;55.16
55187;BME280;55457;52.002;5.464;2023-05-12T02:19:54;101434.66;;;21.84;54.76
55187;BME280;55457;52.002;5.464;2023-05-12T02:22:20;101431.13;;;21.84;55.03
55187;BME280;55457;52.002;5.464;2023-05-12T02:24:45;101432.75;;;21.85;55.01
55187;BME280;55457;52.002;5.464;2023-05-12T02:27:10;101431.13;;;21.84;54.95
55187;BME280;55457;52.002;5.464;2023-05-12T02:29:36;101428.41;;;21.84;54.81
55187;BME280;55457;52.002;5.464;2023-05-12T02:32:02;101436.53;;;21.84;55.08
55187;BME280;55457;52.002;5.464;2023-05-12T02:34:28;101431.13;;;21.84;54.88
55187;BME280;55457;52.002;5.464;2023-05-12T02:36:53;101424.03;;;21.83;54.75
55187;BME280;55457;52.002;5.464;2023-05-12T02:39:18;101422.16;;;21.83;55.07
55187;BME280;55457;52.002;5.464;2023-05-12T02:41:44;101424.88;;;21.83;54.93
55187;BME280;55457;52.002;5.464;2023-05-12T02:44:09;101422.97;;;21.84;55.07
55187;BME280;55457;52.002;5.464;2023-05-12T02:46:34;101419.44;;;21.83;54.60
55187;BME280;55457;52.002;5.464;2023-05-12T02:49:00;101425.69;;;21.84;54.61
55187;BME280;55457;52.002;5.464;2023-05-12T02:51:25;101416.94;;;21.82;54.95
55187;BME280;55457;52.002;5.464;2023-05-12T02:53:50;101424.88;;;21.83;54.93
55187;BME280;55457;52.002;5.464;2023-05-12T02:56:16;101415.91;;;21.83;54.97
55187;BME280;55457;52.002;5.464;2023-05-12T02:58:42;101415.09;;;21.82;54.56
55187;BME280;55457;52.002;5.464;2023-05-12T03:01:07;101418.63;;;21.83;54.92
55187;BME280;55457;52.002;5.464;2023-05-12T03:03:32;101404.44;;;21.81;54.84
55187;BME280;55457;52.002;5.464;2023-05-12T03:05:58;101410.47;;;21.83;54.94
55187;BME280;55457;52.002;5.464;2023-05-12T03:08:23;101417.78;;;21.82;54.81
55187;BME280;55457;52.002;5.464;2023-05-12T03:10:49;101411.53;;;21.82;54.73
55187;BME280;55457;52.002;5.464;2023-05-12T03:13:14;101405.28;;;21.81;54.92
55187;BME280;55457;52.002;5.464;2023-05-12T03:15:40;101404.69;;;21.79;54.84
55187;BME280;55457;52.002;5.464;2023-05-12T03:18:05;101408.81;;;21.82;54.80
55187;BME280;55457;52.002;5.464;2023-05-12T03:20:30;101410.69;;;21.81;54.66
55187;BME280;55457;52.002;5.464;2023-05-12T03:22:56;101406.94;;;21.82;54.68
55187;BME280;55457;52.002;5.464;2023-05-12T03:25:21;101407.16;;;21.81;54.71
55187;BME280;55457;52.002;5.464;2023-05-12T03:27:47;101409.88;;;21.81;54.74
55187;BME280;55457;52.002;5.464;2023-05-12T03:30:12;101406.09;;;21.82;54.77
55187;BME280;55457;52.002;5.464;2023-05-12T03:32:38;101405.28;;;21.81;54.66
55187;BME280;55457;52.002;5.464;2023-05-12T03:35:04;101399.03;;;21.81;54.54
55187;BME280;55457;52.002;5.464;2023-05-12T03:37:30;101399.03;;;21.81;54.88
55187;BME280;55457;52.002;5.464;2023-05-12T03:39:56;101401.72;;;21.81;54.83
55187;BME280;55457;52.002;5.464;2023-05-12T03:42:22;101393.59;;;21.81;55.26
55187;BME280;55457;52.002;5.464;2023-05-12T03:44:50;101399.03;;;21.81;54.69
55187;BME280;55457;52.002;5.464;2023-05-12T03:47:15;101388.16;;;21.81;54.97
55187;BME280;55457;52.002;5.464;2023-05-12T03:49:41;101394.91;;;21.78;54.72
55187;BME280;55457;52.002;5.464;2023-05-12T03:52:06;101397.38;;;21.80;54.89
55187;BME280;55457;52.002;5.464;2023-05-12T03:54:31;101397.38;;;21.80;54.92
55187;BME280;55457;52.002;5.464;2023-05-12T03:56:57;101393.03;;;21.79;54.60
55187;BME280;55457;52.002;5.464;2023-05-12T03:59:22;101397.38;;;21.80;54.95
55187;BME280;55457;52.002;5.464;2023-05-12T04:01:48;101396.81;;;21.78;54.63
55187;BME280;55457;52.002;5.464;2023-05-12T04:04:13;101400.34;;;21.78;54.69
55187;BME280;55457;52.002;5.464;2023-05-12T04:06:38;101401.16;;;21.79;54.81
55187;BME280;55457;52.002;5.464;2023-05-12T04:09:04;101396.56;;;21.79;54.69
55187;BME280;55457;52.002;5.464;2023-05-12T04:11:30;101395.72;;;21.79;54.72
55187;BME280;55457;52.002;5.464;2023-05-12T04:13:55;101394.66;;;21.80;54.67
55187;BME280;55457;52.002;5.464;2023-05-12T04:16:21;101394.91;;;21.78;54.58
55187;BME280;55457;52.002;5.464;2023-05-12T04:18:46;101391.13;;;21.79;54.96
55187;BME280;55457;52.002;5.464;2023-05-12T04:21:13;101391.13;;;21.79;54.74
55187;BME280;55457;52.002;5.464;2023-05-12T04:23:38;101394.09;;;21.78;54.51
55187;BME280;55457;52.002;5.464;2023-05-12T04:26:05;101391.94;;;21.80;54.62
55187;BME280;55457;52.002;5.464;2023-05-12T04:28:30;101395.72;;;21.79;54.68
55187;BME280;55457;52.002;5.464;2023-05-12T04:31:01;101394.91;;;21.78;54.48
55187;BME280;55457;52.002;5.464;2023-05-12T04:33:27;101384.53;;;21.75;54.64
55187;BME280;55457;52.002;5.464;2023-05-12T04:35:56;101403.88;;;21.79;54.43
55187;BME280;55457;52.002;5.464;2023-05-12T04:38:21;101406.59;;;21.79;54.53
55187;BME280;55457;52.002;5.464;2023-05-12T04:40:47;101401.41;;;21.77;54.52
55187;BME280;55457;52.002;5.464;2023-05-12T04:43:12;101408.22;;;21.80;54.89
55187;BME280;55457;52.002;5.464;2023-05-12T04:45:37;101406.59;;;21.79;54.68
55187;BME280;55457;52.002;5.464;2023-05-12T04:48:03;101401.16;;;21.79;54.89
55187;BME280;55457;52.002;5.464;2023-05-12T04:50:28;101406.59;;;21.79;54.74
55187;BME280;55457;52.002;5.464;2023-05-12T04:52:54;101406.59;;;21.79;54.46
55187;BME280;55457;52.002;5.464;2023-05-12T04:55:19;101412.00;;;21.79;54.44
55187;BME280;55457;52.002;5.464;2023-05-12T04:57:44;101409.31;;;21.79;54.69
55187;BME280;55457;52.002;5.464;2023-05-12T05:00:10;101417.44;;;21.79;54.69
55187;BME280;55457;52.002;5.464;2023-05-12T05:02:36;101427.22;;;21.80;54.53
55187;BME280;55457;52.002;5.464;2023-05-12T05:05:01;101427.47;;;21.78;54.72
55187;BME280;55457;52.002;5.464;2023-05-12T05:07:27;101437.50;;;21.78;54.59
55187;BME280;55457;52.002;5.464;2023-05-12T05:09:52;101433.72;;;21.79;54.63
55187;BME280;55457;52.002;5.464;2023-05-12T05:12:17;101441.59;;;21.80;54.56
55187;BME280;55457;52.002;5.464;2023-05-12T05:14:43;101436.44;;;21.79;54.98
55187;BME280;55457;52.002;5.464;2023-05-12T05:17:08;101433.47;;;21.80;54.83
55187;BME280;55457;52.002;5.464;2023-05-12T05:19:36;101447.84;;;21.81;54.83
55187;BME280;55457;52.002;5.464;2023-05-12T05:22:01;101459.53;;;21.81;54.69
55187;BME280;55457;52.002;5.464;2023-05-12T05:24:27;101455.78;;;21.82;54.76
55187;BME280;55457;52.002;5.464;2023-05-12T05:26:52;101456.59;;;21.83;54.62
55187;BME280;55457;52.002;5.464;2023-05-12T05:29:18;101458.72;;;21.81;54.35
55187;BME280;55457;52.002;5.464;2023-05-12T05:31:43;101451.19;;;21.83;54.51
55187;BME280;55457;52.002;5.464;2023-05-12T05:34:08;101451.19;;;21.83;54.53
55187;BME280;55457;52.002;5.464;2023-05-12T05:36:34;101446.56;;;21.83;54.81
55187;BME280;55457;52.002;5.464;2023-05-12T05:38:59;101445.75;;;21.83;54.49
55187;BME280;55457;52.002;5.464;2023-05-12T05:41:25;101442.22;;;21.82;54.75
55187;BME280;55457;52.002;5.464;2023-05-12T05:43:50;101444.94;;;21.82;54.76
55187;BME280;55457;52.002;5.464;2023-05-12T05:46:15;101451.19;;;21.83;54.82
55187;BME280;55457;52.002;5.464;2023-05-12T05:48:41;101452.81;;;21.84;54.82
55187;BME280;55457;52.002;5.464;2023-05-12T05:51:06;101445.75;;;21.83;54.88
55187;BME280;55457;52.002;5.464;2023-05-12T05:53:31;101450.09;;;21.84;54.78
55187;BME280;55457;52.002;5.464;2023-05-12T05:55:57;101460.13;;;21.83;54.55
55187;BME280;55457;52.002;5.464;2023-05-12T05:58:22;101460.34;;;21.82;54.73
55187;BME280;55457;52.002;5.464;2023-05-12T06:00:48;101467.47;;;21.83;54.71
55187;BME280;55457;52.002;5.464;2023-05-12T06:03:13;101472.88;;;21.83;54.66
55187;BME280;55457;52.002;5.464;2023-05-12T06:05:39;101476.41;;;21.83;54.58
55187;BME280;55457;52.002;5.464;2023-05-12T06:08:06;101472.88;;;21.83;55.08
55187;BME280;55457;52.002;5.464;2023-05-12T06:10:33;101472.28;;;21.81;55.61
55187;BME280;55457;52.002;5.464;2023-05-12T06:12:59;101479.97;;;21.84;55.96
55187;BME280;55457;52.002;5.464;2023-05-12T06:15:24;101472.88;;;21.83;55.60
55187;BME280;55457;52.002;5.464;2023-05-12T06:17:50;101476.63;;;21.82;55.52
55187;BME280;55457;52.002;5.464;2023-05-12T06:20:15;101486.44;;;21.83;55.59
55187;BME280;55457;52.002;5.464;2023-05-12T06:22:41;101489.38;;;21.81;55.23
55187;BME280;55457;52.002;5.464;2023-05-12T06:25:07;101485.84;;;21.81;55.46
55187;BME280;55457;52.002;5.464;2023-05-12T06:27:32;101498.34;;;21.82;55.23
55187;BME280;55457;52.002;5.464;2023-05-12T06:29:58;101493.78;;;21.82;55.50
55187;BME280;55457;52.002;5.464;2023-05-12T06:32:23;101494.59;;;21.83;55.21
55187;BME280;55457;52.002;5.464;2023-05-12T06:34:49;101498.34;;;21.82;55.42
55187;BME280;55457;52.002;5.464;2023-05-12T06:37:14;101492.91;;;21.82;55.42
55187;BME280;55457;52.002;5.464;2023-05-12T06:39:39;101498.34;;;21.82;55.51
55187;BME280;55457;52.002;5.464;2023-05-12T06:42:05;101496.69;;;21.81;55.40
55187;BME280;55457;52.002;5.464;2023-05-12T06:44:30;101501.91;;;21.82;55.03
55187;BME280;55457;52.002;5.464;2023-05-12T06:46:56;101506.25;;;21.83;55.42
55187;BME280;55457;52.002;5.464;2023-05-12T06:49:21;101496.47;;;21.82;55.10
55187;BME280;55457;52.002;5.464;2023-05-12T06:51:47;101509.81;;;21.84;55.09
55187;BME280;55457;52.002;5.464;2023-05-12T06:54:12;101512.50;;;21.84;55.10
55187;BME280;55457;52.002;5.464;2023-05-12T06:56:37;101514.16;;;21.85;55.42
55187;BME280;55457;52.002;5.464;2023-05-12T06:59:03;101518.75;;;21.84;54.92
55187;BME280;55457;52.002;5.464;2023-05-12T07:01:30;101514.97;;;21.85;55.23
55187;BME280;55457;52.002;5.464;2023-05-12T07:03:56;101512.50;;;21.84;55.42
55187;BME280;55457;52.002;5.464;2023-05-12T07:06:22;101511.44;;;21.85;55.38
55187;BME280;55457;52.002;5.464;2023-05-12T07:08:48;101521.22;;;21.86;55.26
55187;BME280;55457;52.002;5.464;2023-05-12T07:11:14;101528.56;;;21.85;55.34
55187;BME280;55457;52.002;5.464;2023-05-12T07:13:55;101520.41;;;21.85;55.34
55187;BME280;55457;52.002;5.464;2023-05-12T07:16:21;101533.72;;;21.87;55.35
55187;BME280;55457;52.002;5.464;2023-05-12T07:18:46;101527.47;;;21.86;55.45
55187;BME280;55457;52.002;5.464;2023-05-12T07:21:12;101526.66;;;21.86;55.37
55187;BME280;55457;52.002;5.464;2023-05-12T07:23:37;101528.31;;;21.87;55.19
55187;BME280;55457;52.002;5.464;2023-05-12T07:26:05;101522.88;;;21.87;55.11
55187;BME280;55457;52.002;5.464;2023-05-12T07:28:32;101525.38;;;21.88;55.21
55187;BME280;55457;52.002;5.464;2023-05-12T07:31:02;101530.81;;;21.88;55.16
55187;BME280;55457;52.002;5.464;2023-05-12T07:33:28;101537.88;;;21.89;55.18
55187;BME280;55457;52.002;5.464;2023-05-12T07:35:53;101537.88;;;21.89;55.30
55187;BME280;55457;52.002;5.464;2023-05-12T07:38:18;101545.78;;;21.91;55.31
55187;BME280;55457;52.002;5.464;2023-05-12T07:40:44;101548.47;;;21.91;55.22
55187;BME280;55457;52.002;5.464;2023-05-12T07:43:10;101547.41;;;21.92;55.14
55187;BME280;55457;52.002;5.464;2023-05-12T07:45:35;101549.09;;;21.93;55.17
55187;BME280;55457;52.002;5.464;2023-05-12T07:48:01;101543.66;;;21.93;55.11
55187;BME280;55457;52.002;5.464;2023-05-12T07:50:27;101552.38;;;21.95;55.44
55187;BME280;55457;52.002;5.464;2023-05-12T07:52:52;101559.47;;;21.96;55.05
55187;BME280;55457;52.002;5.464;2023-05-12T07:55:19;101555.66;;;21.97;55.19
55187;BME280;55457;52.002;5.464;2023-05-12T07:57:45;101553.56;;;21.99;55.23
55187;BME280;55457;52.002;5.464;2023-05-12T08:00:11;101553.56;;;21.99;54.96
55187;BME280;55457;52.002;5.464;2023-05-12T08:02:37;101557.34;;;21.98;54.98
55187;BME280;55457;52.002;5.464;2023-05-12T08:05:03;101554.03;;;21.96;55.34
55187;BME280;55457;52.002;5.464;2023-05-12T08:07:29;101555.22;;;22.00;56.05
55187;BME280;55457;52.002;5.464;2023-05-12T08:09:54;101557.47;;;22.03;57.91
55187;BME280;55457;52.002;5.464;2023-05-12T08:12:20;101563.47;;;22.05;57.51
55187;BME280;55457;52.002;5.464;2023-05-12T08:14:46;101559.69;;;22.06;56.90
55187;BME280;55457;52.002;5.464;2023-05-12T08:17:11;101560.50;;;22.07;56.43
55187;BME280;55457;52.002;5.464;2023-05-12T08:19:37;101556.97;;;22.06;56.51
55187;BME280;55457;52.002;5.464;2023-05-12T08:22:02;101558.88;;;22.06;56.64
55187;BME280;55457;52.002;5.464;2023-05-12T08:24:27;101558.03;;;22.05;56.51
55187;BME280;55457;52.002;5.464;2023-05-12T08:26:53;101568.66;;;22.07;56.84
55187;BME280;55457;52.002;5.464;2023-05-12T08:29:18;101562.41;;;22.06;56.43
55187;BME280;55457;52.002;5.464;2023-05-12T08:31:43;101560.50;;;22.07;56.46
55187;BME280;55457;52.002;5.464;2023-05-12T08:34:09;101571.16;;;22.08;56.09
55187;BME280;55457;52.002;5.464;2023-05-12T08:36:34;101568.44;;;22.08;56.30
55187;BME280;55457;52.002;5.464;2023-05-12T08:39:00;101565.47;;;22.10;56.04
55187;BME280;55457;52.002;5.464;2023-05-12T08:41:41;101588.03;;;22.10;56.06
55187;BME280;55457;52.002;5.464;2023-05-12T08:44:07;101573.63;;;22.10;56.10
55187;BME280;55457;52.002;5.464;2023-05-12T08:46:34;101578.84;;;22.11;56.00
55187;BME280;55457;52.002;5.464;2023-05-12T08:49:00;101580.47;;;22.12;55.65
55187;BME280;55457;52.002;5.464;2023-05-12T08:51:27;101582.16;;;22.13;55.21
55187;BME280;55457;52.002;5.464;2023-05-12T08:53:54;101583.56;;;22.16;55.15
55187;BME280;55457;52.002;5.464;2023-05-12T08:56:20;101585.00;;;22.19;54.78
55187;BME280;55457;52.002;5.464;2023-05-12T08:58:46;101591.56;;;22.23;54.73
55187;BME280;55457;52.002;5.464;2023-05-12T09:01:13;101597.34;;;22.26;54.83
55187;BME280;55457;52.002;5.464;2023-05-12T09:03:38;101596.53;;;22.26;54.66
55187;BME280;55457;52.002;5.464;2023-05-12T09:06:05;101599.63;;;22.29;55.22
55187;BME280;55457;52.002;5.464;2023-05-12T09:08:31;101597.94;;;22.28;54.74
55187;BME280;55457;52.002;5.464;2023-05-12T09:10:58;101595.22;;;22.28;55.05
55187;BME280;55457;52.002;5.464;2023-05-12T09:16:17;101603.16;;;22.30;55.35
55187;BME280;55457;52.002;5.464;2023-05-12T09:18:49;101579.63;;;22.24;55.28
55187;BME280;55457;52.002;5.464;2023-05-12T09:21:15;101599.63;;;22.29;55.37
55187;BME280;55457;52.002;5.464;2023-05-12T09:23:51;101601.84;;;22.32;55.56
55187;BME280;55457;52.002;5.464;2023-05-12T09:26:16;101605.72;;;22.36;55.51
55187;BME280;55457;52.002;5.464;2023-05-12T09:28:42;101591.69;;;22.39;55.28
55187;BME280;55457;52.002;5.464;2023-05-12T09:31:19;101592.50;;;22.40;55.30
55187;BME280;55457;52.002;5.464;2023-05-12T09:33:45;101606.66;;;22.42;55.13
55187;BME280;55457;52.002;5.464;2023-05-12T09:36:11;101611.53;;;22.40;55.08
55187;BME280;55457;52.002;5.464;2023-05-12T09:38:40;101612.34;;;22.40;55.10
55187;BME280;55457;52.002;5.464;2023-05-12T09:41:05;101617.53;;;22.42;55.36
55187;BME280;55457;52.002;5.464;2023-05-12T09:43:31;101613.75;;;22.43;55.21
55187;BME280;55457;52.002;5.464;2023-05-12T09:45:56;101620.81;;;22.44;55.49
55187;BME280;55457;52.002;5.464;2023-05-12T09:48:22;101624.59;;;22.43;55.56
55187;BME280;55457;52.002;5.464;2023-05-12T09:50:49;101626.25;;;22.44;55.39
55187;BME280;55457;52.002;5.464;2023-05-12T09:53:16;101628.75;;;22.46;55.62
55187;BME280;55457;52.002;5.464;2023-05-12T09:55:43;101627.44;;;22.48;55.51
55187;BME280;55457;52.002;5.464;2023-05-12T09:58:09;101634.28;;;22.51;55.44
55187;BME280;55457;52.002;5.464;2023-05-12T10:00:38;101625.66;;;22.54;55.86
55187;BME280;55457;52.002;5.464;2023-05-12T10:03:10;101627.66;;;22.58;55.72
55187;BME280;55457;52.002;5.464;2023-05-12T10:05:38;101626.69;;;22.64;56.08
55187;BME280;55457;52.002;5.464;2023-05-12T10:08:08;101634.38;;;22.67;56.01
55187;BME280;55457;52.002;5.464;2023-05-12T10:10:36;101631.75;;;22.73;56.08
55187;BME280;55457;52.002;5.464;2023-05-12T10:13:01;101626.91;;;22.75;55.76
55187;BME280;55457;52.002;5.464;2023-05-12T10:15:28;101626.44;;;22.78;55.76
55187;BME280;55457;52.002;5.464;2023-05-12T10:17:55;101634.84;;;22.76;54.95
55187;BME280;55457;52.002;5.464;2023-05-12T10:20:21;101624.28;;;22.80;54.14
55187;BME280;55457;52.002;5.464;2023-05-12T10:22:47;101626.03;;;22.86;53.58
55187;BME280;55457;52.002;5.464;2023-05-12T10:25:14;101627.00;;;22.91;53.16
55187;BME280;55457;52.002;5.464;2023-05-12T10:27:41;101625.44;;;22.96;52.39
55187;BME280;55457;52.002;5.464;2023-05-12T10:30:09;101620.72;;;23.03;52.05
55187;BME280;55457;52.002;5.464;2023-05-12T10:32:34;101628.97;;;23.08;51.45
55187;BME280;55457;52.002;5.464;2023-05-12T10:35:10;101634.63;;;23.06;50.86
55187;BME280;55457;52.002;5.464;2023-05-12T10:37:36;101622.78;;;23.12;50.88
55187;BME280;55457;52.002;5.464;2023-05-12T10:40:02;101633.66;;;23.12;51.16
55187;BME280;55457;52.002;5.464;2023-05-12T10:42:39;101638.63;;;23.15;50.74
55187;BME280;55457;52.002;5.464;2023-05-12T10:45:16;101625.50;;;23.12;50.71
55187;BME280;55457;52.002;5.464;2023-05-12T10:47:42;101629.53;;;23.10;51.51
55187;BME280;55457;52.002;5.464;2023-05-12T10:50:08;101632.50;;;23.08;51.51
55187;BME280;55457;52.002;5.464;2023-05-12T10:52:38;101632.72;;;23.07;51.81
55187;BME280;55457;52.002;5.464;2023-05-12T10:55:03;101627.53;;;23.05;52.16
55187;BME280;55457;52.002;5.464;2023-05-12T10:57:30;101636.78;;;23.04;52.42
55187;BME280;55457;52.002;5.464;2023-05-12T10:59:57;101631.34;;;23.04;52.57
55187;BME280;55457;52.002;5.464;2023-05-12T11:02:25;101635.13;;;23.03;52.89
55187;BME280;55457;52.002;5.464;2023-05-12T11:05:08;101646.81;;;23.04;52.97
55187;BME280;55457;52.002;5.464;2023-05-12T11:07:34;101640.06;;;23.06;52.68
55187;BME280;55457;52.002;5.464;2023-05-12T11:10:02;101637.13;;;23.08;52.75
55187;BME280;55457;52.002;5.464;2023-05-12T11:12:32;101634.72;;;23.11;52.76
55187;BME280;55457;52.002;5.464;2023-05-12T11:15:00;101647.84;;;23.14;52.94
55187;BME280;55457;52.002;5.464;2023-05-12T11:17:25;101639.19;;;23.17;52.77
55187;BME280;55457;52.002;5.464;2023-05-12T11:19:51;101643.41;;;23.25;52.65
55187;BME280;55457;52.002;5.464;2023-05-12T11:22:18;101647.06;;;23.31;52.68
55187;BME280;55457;52.002;5.464;2023-05-12T11:24:44;101635.09;;;23.32;52.39
55187;BME280;55457;52.002;5.464;2023-05-12T11:27:17;101647.41;;;23.34;52.26
55187;BME280;55457;52.002;5.464;2023-05-12T11:29:43;101646.59;;;23.34;52.16
55187;BME280;55457;52.002;5.464;2023-05-12T11:32:11;101641.16;;;23.34;52.47
55187;BME280;55457;52.002;5.464;2023-05-12T11:34:39;101649.88;;;23.36;52.39
55187;BME280;55457;52.002;5.464;2023-05-12T11:37:05;101646.91;;;23.37;52.08
55187;BME280;55457;52.002;5.464;2023-05-12T11:39:31;101644.91;;;23.33;52.11
55187;BME280;55457;52.002;5.464;2023-05-12T11:42:01;101638.19;;;23.35;52.33
55187;BME280;55457;52.002;5.464;2023-05-12T11:44:28;101648.06;;;23.41;52.08
55187;BME280;55457;52.002;5.464;2023-05-12T11:47:13;101648.91;;;23.42;51.93
55187;BME280;55457;52.002;5.464;2023-05-12T11:49:52;101639.19;;;23.46;52.04
55187;BME280;55457;52.002;5.464;2023-05-12T11:52:22;101655.75;;;23.44;52.34
55187;BME280;55457;52.002;5.464;2023-05-12T11:54:54;101652.78;;;23.46;52.32
55187;BME280;55457;52.002;5.464;2023-05-12T11:57:28;101658.47;;;23.44;51.88
55187;BME280;55457;52.002;5.464;2023-05-12T11:59:57;101650.53;;;23.43;52.20
55187;BME280;55457;52.002;5.464;2023-05-12T12:02:24;101645.19;;;23.48;51.79
55187;BME280;55457;52.002;5.464;2023-05-12T12:04:49;101654.53;;;23.52;51.94
55187;BME280;55457;52.002;5.464;2023-05-12T12:07:15;101657.91;;;23.59;52.03
55187;BME280;55457;52.002;5.464;2023-05-12T12:09:40;101656.38;;;23.63;51.85
55187;BME280;55457;52.002;5.464;2023-05-12T12:12:08;101658.00;;;23.64;51.83
55187;BME280;55457;52.002;5.464;2023-05-12T12:14:35;101656.16;;;23.65;51.90
55187;BME280;55457;52.002;5.464;2023-05-12T12:17:03;101663.53;;;23.69;51.52
55187;BME280;55457;52.002;5.464;2023-05-12T12:19:29;101659.53;;;23.72;51.79
55187;BME280;55457;52.002;5.464;2023-05-12T12:21:55;101652.28;;;23.78;51.69
55187;BME280;55457;52.002;5.464;2023-05-12T12:24:21;101655.56;;;23.80;51.47
55187;BME280;55457;52.002;5.464;2023-05-12T12:26:47;101655.06;;;23.83;51.56
55187;BME280;55457;52.002;5.464;2023-05-12T12:29:12;101651.88;;;23.86;51.70
55187;BME280;55457;52.002;5.464;2023-05-12T12:31:38;101662.00;;;23.90;51.41
55187;BME280;55457;52.002;5.464;2023-05-12T12:34:03;101664.97;;;23.89;51.61
55187;BME280;55457;52.002;5.464;2023-05-12T12:36:30;101665.97;;;23.83;51.70
55187;BME280;55457;52.002;5.464;2023-05-12T12:38:56;101660.53;;;23.83;51.42
55187;BME280;55457;52.002;5.464;2023-05-12T12:41:21;101667.53;;;23.79;51.46
55187;BME280;55457;52.002;5.464;2023-05-12T12:43:47;101653.34;;;23.77;51.78
55187;BME280;55457;52.002;5.464;2023-05-12T12:46:12;101660.78;;;23.81;51.65
55187;BME280;55457;52.002;5.464;2023-05-12T12:48:38;101659.44;;;23.84;51.70